Time;durP1;ratioP1;P1;durP2;ratioP2;P2;SDS_P1;SDS_P2;PMS_P1;PMS_P2;Temp;Humidity;BMP_temperature;BMP_pressure;BME280_temperature;BME280_humidity;BME280_pressure;Samples;Min_cycle;Max_cycle;Signal;HPM_P1;HPM_P2
2022/04/29 00:00:05;;;;;;;8.93;7.30;;;;;;;;;;514713;28;1701;-81
2022/04/29 00:00:23;;;;;;;10.07;7.80;;;;;;;;;;514547;28;1536;-81
2022/04/29 00:00:39;;;;;;;9.90;7.85;;;;;;;;;;514662;28;1633;-80
2022/04/29 00:00:55;;;;;;;10.88;8.23;;;;;;;;;;514512;28;1430;-80
2022/04/29 00:01:10;;;;;;;11.47;8.10;;;;;;;;;;515915;28;1591;-81
2022/04/29 00:01:26;;;;;;;10.25;7.65;;;;;;;;;;516476;28;2006;-81
2022/04/29 00:01:41;;;;;;;9.40;7.77;;;;;;;;;;514292;28;1591;-80
2022/04/29 00:01:56;;;;;;;9.23;8.00;;;;;;;;;;514442;28;1465;-80
2022/04/29 00:02:12;;;;;;;9.48;7.90;;;;;;;;;;513907;28;1639;-81
2022/04/29 00:02:27;;;;;;;9.90;7.90;;;;;;;;;;514725;28;1688;-81
2022/04/29 00:02:43;;;;;;;10.50;7.72;;;;;;;;;;514096;28;1670;-81
2022/04/29 00:02:59;;;;;;;10.35;7.38;;;;;;;;;;512698;28;1588;-81
2022/04/29 00:03:15;;;;;;;10.13;7.70;;;;;;;;;;512567;28;1557;-81
2022/04/29 00:03:30;;;;;;;10.60;7.72;;;;;;;;;;512842;28;1654;-81
2022/04/29 00:03:46;;;;;;;10.07;7.60;;;;;;;;;;513903;28;1632;-81
2022/04/29 00:04:02;;;;;;;9.35;7.57;;;;;;;;;;512709;28;2182;-81
2022/04/29 00:04:17;;;;;;;8.53;7.40;;;;;;;;;;512529;28;1454;-81
2022/04/29 00:04:33;;;;;;;8.82;7.43;;;;;;;;;;512282;28;1498;-81
2022/04/29 00:04:48;;;;;;;10.43;7.60;;;;;;;;;;512512;28;1516;-81
2022/04/29 00:05:04;;;;;;;10.73;7.57;;;;;;;;;;512603;28;1596;-81
2022/04/29 00:05:19;;;;;;;9.70;7.50;;;;;;;;;;511276;28;1477;-81
2022/04/29 00:05:36;;;;;;;9.00;7.20;;;;;;;;;;512122;28;1576;-81
2022/04/29 00:05:53;;;;;;;8.88;7.47;;;;;;;;;;512130;28;1466;-81
2022/04/29 00:06:09;;;;;;;9.65;7.82;;;;;;;;;;511105;28;1508;-81
2022/04/29 00:06:25;;;;;;;9.67;7.53;;;;;;;;;;511592;28;1482;-81
2022/04/29 00:06:40;;;;;;;9.13;7.40;;;;;;;;;;512438;28;1394;-81
2022/04/29 00:06:55;;;;;;;9.47;7.53;;;;;;;;;;512120;28;1548;-81
2022/04/29 00:07:11;;;;;;;10.25;7.50;;;;;;;;;;512331;28;1417;-81
2022/04/29 00:07:26;;;;;;;11.03;7.67;;;;;;;;;;511945;28;1635;-81
2022/04/29 00:07:42;;;;;;;10.55;7.72;;;;;;;;;;512421;28;1619;-81
2022/04/29 00:07:57;;;;;;;9.77;7.87;;;;;;;;;;512335;28;1520;-81
2022/04/29 00:08:13;;;;;;;10.10;7.73;;;;;;;;;;512956;28;1594;-81
2022/04/29 00:08:28;;;;;;;10.50;7.65;;;;;;;;;;514355;28;1595;-81
2022/04/29 00:08:44;;;;;;;10.57;7.73;;;;;;;;;;512733;28;1469;-81
2022/04/29 00:08:59;;;;;;;10.07;7.63;;;;;;;;;;512782;28;1651;-81
2022/04/29 00:09:15;;;;;;;9.75;7.70;;;;;;;;;;514818;28;2083;-81
2022/04/29 00:09:30;;;;;;;10.40;7.90;;;;;;;;;;514760;28;1520;-81
2022/04/29 00:09:46;;;;;;;10.15;7.70;;;;;;;;;;512416;28;1433;-81
2022/04/29 00:10:01;;;;;;;9.90;7.57;;;;;;;;;;512496;28;1615;-81
2022/04/29 00:10:17;;;;;;;10.13;7.95;;;;;;;;;;512520;28;1480;-81
2022/04/29 00:10:34;;;;;;;9.63;7.90;;;;;;;;;;512502;28;1571;-81
2022/04/29 00:10:50;;;;;;;9.50;7.63;;;;;;;;;;514323;28;1650;-81
2022/04/29 00:11:06;;;;;;;9.57;7.70;;;;;;;;;;514162;28;1583;-81
2022/04/29 00:11:22;;;;;;;9.50;7.90;;;;;;;;;;514205;28;1582;-81
2022/04/29 00:11:37;;;;;;;10.00;7.97;;;;;;;;;;515044;28;1488;-81
2022/04/29 00:11:53;;;;;;;9.47;7.77;;;;;;;;;;516189;28;1693;-81
2022/04/29 00:12:08;;;;;;;8.93;7.60;;;;;;;;;;515767;28;1627;-81
2022/04/29 00:12:25;;;;;;;8.63;7.68;;;;;;;;;;514976;28;1944;-81
2022/04/29 00:12:43;;;;;;;9.73;7.60;;;;;;;;;;515120;28;1432;-81
2022/04/29 00:12:59;;;;;;;10.95;7.60;;;;;;;;;;514153;28;1575;-81
2022/04/29 00:13:15;;;;;;;10.48;7.80;;;;;;;;;;514459;28;1747;-81
2022/04/29 00:13:31;;;;;;;9.80;8.02;;;;;;;;;;515277;28;1902;-81
2022/04/29 00:13:46;;;;;;;8.57;7.60;;;;;;;;;;516112;28;1670;-81
2022/04/29 00:14:01;;;;;;;8.30;7.50;;;;;;;;;;516471;28;1453;-81
2022/04/29 00:14:17;;;;;;;8.88;7.55;;;;;;;;;;515461;28;1616;-81
2022/04/29 00:14:33;;;;;;;9.40;7.40;;;;;;;;;;514364;28;1501;-81
2022/04/29 00:14:49;;;;;;;10.23;7.75;;;;;;;;;;515034;28;1871;-81
2022/04/29 00:15:05;;;;;;;10.80;7.70;;;;;;;;;;515121;28;1424;-81
2022/04/29 00:15:21;;;;;;;11.35;7.70;;;;;;;;;;515054;28;1370;-81
2022/04/29 00:15:36;;;;;;;11.00;7.90;;;;;;;;;;514306;28;1567;-81
2022/04/29 00:15:52;;;;;;;9.70;7.43;;;;;;;;;;513136;28;1402;-81
2022/04/29 00:16:07;;;;;;;9.00;7.00;;;;;;;;;;512859;28;1666;-81
2022/04/29 00:16:22;;;;;;;8.82;7.15;;;;;;;;;;513476;28;1714;-81
2022/04/29 00:16:38;;;;;;;10.07;7.63;;;;;;;;;;512875;28;1797;-81
2022/04/29 00:16:53;;;;;;;10.60;7.90;;;;;;;;;;513032;28;1449;-81
2022/04/29 00:17:09;;;;;;;9.98;7.75;;;;;;;;;;513267;28;1607;-81
2022/04/29 00:17:26;;;;;;;9.70;7.60;;;;;;;;;;513322;28;1536;-81
2022/04/29 00:17:42;;;;;;;8.95;7.57;;;;;;;;;;511123;28;1723;-81
2022/04/29 00:17:58;;;;;;;9.70;7.80;;;;;;;;;;511976;28;1521;-81
2022/04/29 00:18:13;;;;;;;10.27;7.60;;;;;;;;;;512355;28;1882;-81
2022/04/29 00:18:29;;;;;;;9.43;7.47;;;;;;;;;;513793;28;1648;-81
2022/04/29 00:18:44;;;;;;;8.60;7.43;;;;;;;;;;513505;28;1565;-81
2022/04/29 00:19:00;;;;;;;8.63;7.60;;;;;;;;;;513321;28;1614;-81
2022/04/29 00:19:16;;;;;;;8.97;7.60;;;;;;;;;;513131;28;1852;-81
2022/04/29 00:19:32;;;;;;;9.32;7.53;;;;;;;;;;514080;28;1827;-81
2022/04/29 00:19:48;;;;;;;8.95;7.47;;;;;;;;;;515432;28;1487;-81
2022/04/29 00:20:05;;;;;;;8.95;7.55;;;;;;;;;;515833;28;1652;-81
2022/04/29 00:20:21;;;;;;;9.05;7.70;;;;;;;;;;515432;28;1639;-81
2022/04/29 00:20:38;;;;;;;9.70;7.43;;;;;;;;;;516670;28;1567;-81
2022/04/29 00:20:53;;;;;;;9.63;7.28;;;;;;;;;;516850;28;1523;-81
2022/04/29 00:21:08;;;;;;;8.73;7.65;;;;;;;;;;517276;28;1373;-81
2022/04/29 00:21:24;;;;;;;9.13;8.10;;;;;;;;;;517244;28;2121;-81
2022/04/29 00:21:41;;;;;;;11.73;8.20;;;;;;;;;;516822;28;1499;-81
2022/04/29 00:21:56;;;;;;;10.98;7.93;;;;;;;;;;517164;28;1579;-81
2022/04/29 00:22:11;;;;;;;9.45;7.88;;;;;;;;;;514964;28;1607;-81
2022/04/29 00:22:27;;;;;;;10.60;8.17;;;;;;;;;;513709;28;1425;-81
2022/04/29 00:22:44;;;;;;;10.93;8.10;;;;;;;;;;513342;28;1654;-81
2022/04/29 00:23:00;;;;;;;9.30;7.65;;;;;;;;;;513074;28;1505;-81
2022/04/29 00:23:16;;;;;;;8.68;7.47;;;;;;;;;;513102;28;1539;-81
2022/04/29 00:23:31;;;;;;;10.35;7.88;;;;;;;;;;513555;28;1486;-81
2022/04/29 00:23:47;;;;;;;11.10;8.10;;;;;;;;;;513551;28;1488;-81
2022/04/29 00:24:02;;;;;;;10.00;8.03;;;;;;;;;;514178;28;1413;-81
2022/04/29 00:24:17;;;;;;;10.80;8.05;;;;;;;;;;515850;28;1895;-81
2022/04/29 00:24:35;;;;;;;10.40;7.73;;;;;;;;;;515173;28;1587;-81
2022/04/29 00:24:50;;;;;;;9.02;7.68;;;;;;;;;;515661;28;1492;-81
2022/04/29 00:25:07;;;;;;;9.00;7.80;;;;;;;;;;516331;28;1786;-81
2022/04/29 00:25:22;;;;;;;9.07;7.85;;;;;;;;;;516283;28;1844;-81
2022/04/29 00:25:38;;;;;;;9.93;7.80;;;;;;;;;;517155;28;1682;-81
2022/04/29 00:25:53;;;;;;;9.95;7.53;;;;;;;;;;517267;28;1467;-81
2022/04/29 00:26:08;;;;;;;10.50;7.53;;;;;;;;;;514750;28;1516;-81
2022/04/29 00:26:24;;;;;;;11.97;7.70;;;;;;;;;;514938;28;1437;-81
2022/04/29 00:26:40;;;;;;;11.43;7.67;;;;;;;;;;513414;28;1774;-81
2022/04/29 00:26:55;;;;;;;8.93;7.80;;;;;;;;;;512811;28;1497;-81
2022/04/29 00:27:10;;;;;;;9.47;8.00;;;;;;;;;;512939;28;1846;-81
2022/04/29 00:27:26;;;;;;;9.80;7.90;;;;;;;;;;513213;28;1836;-81
2022/04/29 00:27:42;;;;;;;9.48;7.93;;;;;;;;;;515150;28;2313;-81
2022/04/29 00:27:57;;;;;;;10.38;8.02;;;;;;;;;;513401;28;1591;-81
2022/04/29 00:28:13;;;;;;;9.37;7.93;;;;;;;;;;512976;28;1533;-81
2022/04/29 00:28:28;;;;;;;8.57;7.60;;;;;;;;;;513102;28;1491;-81
2022/04/29 00:28:43;;;;;;;9.38;7.60;;;;;;;;;;515124;28;1464;-81
2022/04/29 00:28:59;;;;;;;10.23;7.90;;;;;;;;;;515276;28;1486;-81
2022/04/29 00:29:14;;;;;;;9.93;7.80;;;;;;;;;;513116;28;1491;-81
2022/04/29 00:29:29;;;;;;;9.90;7.67;;;;;;;;;;511432;28;1474;-81
2022/04/29 00:29:45;;;;;;;9.87;7.87;;;;;;;;;;511638;28;1732;-81
2022/04/29 00:30:01;;;;;;;9.90;8.07;;;;;;;;;;513783;28;1440;-81
2022/04/29 00:30:16;;;;;;;10.18;7.95;;;;;;;;;;515542;28;1487;-81
2022/04/29 00:30:32;;;;;;;9.57;7.60;;;;;;;;;;515208;28;1497;-81
2022/04/29 00:30:48;;;;;;;8.93;7.47;;;;;;;;;;513456;28;1750;-81
2022/04/29 00:31:03;;;;;;;8.90;7.67;;;;;;;;;;513257;28;1588;-81
2022/04/29 00:31:18;;;;;;;9.95;7.82;;;;;;;;;;515348;28;1551;-81
2022/04/29 00:31:34;;;;;;;10.43;7.60;;;;;;;;;;513914;28;1509;-81
2022/04/29 00:31:50;;;;;;;9.98;7.50;;;;;;;;;;515190;28;1482;-81
2022/04/29 00:32:06;;;;;;;9.15;7.72;;;;;;;;;;515202;28;1513;-81
2022/04/29 00:32:22;;;;;;;9.40;7.90;;;;;;;;;;514891;28;1787;-81
2022/04/29 00:32:39;;;;;;;8.88;7.82;;;;;;;;;;515144;28;1660;-81
2022/04/29 00:32:54;;;;;;;9.13;7.93;;;;;;;;;;517322;28;1412;-81
2022/04/29 00:33:09;;;;;;;10.27;7.73;;;;;;;;;;517369;28;1737;-81
2022/04/29 00:33:27;;;;;;;9.83;7.43;;;;;;;;;;515629;28;1974;-81
2022/04/29 00:33:42;;;;;;;9.57;7.70;;;;;;;;;;517199;28;1416;-81
2022/04/29 00:33:58;;;;;;;10.20;7.97;;;;;;;;;;517256;28;1529;-81
2022/04/29 00:34:14;;;;;;;10.30;8.30;;;;;;;;;;517237;28;1581;-81
2022/04/29 00:34:29;;;;;;;10.75;7.88;;;;;;;;;;517303;28;1689;-81
2022/04/29 00:34:45;;;;;;;10.57;7.53;;;;;;;;;;517080;28;1436;-81
2022/04/29 00:35:00;;;;;;;10.93;7.90;;;;;;;;;;517377;28;1753;-81
2022/04/29 00:35:16;;;;;;;11.30;8.13;;;;;;;;;;517914;28;1451;-81
2022/04/29 00:35:31;;;;;;;9.98;8.05;;;;;;;;;;519252;28;2494;-81
2022/04/29 00:35:46;;;;;;;10.73;8.13;;;;;;;;;;519228;28;1558;-81
2022/04/29 00:36:02;;;;;;;11.07;8.10;;;;;;;;;;518983;28;1633;-81
2022/04/29 00:36:17;;;;;;;11.23;8.20;;;;;;;;;;519495;28;1623;-81
2022/04/29 00:36:33;;;;;;;11.80;8.30;;;;;;;;;;516682;28;1559;-81
2022/04/29 00:36:48;;;;;;;9.93;8.00;;;;;;;;;;516657;28;1503;-81
2022/04/29 00:37:04;;;;;;;9.10;7.80;;;;;;;;;;517109;28;1658;-81
2022/04/29 00:37:20;;;;;;;10.95;8.02;;;;;;;;;;517228;28;1515;-81
2022/04/29 00:37:44;;;;;;;11.27;8.10;;;;;;;;;;516859;28;1565;-81
2022/04/29 00:37:59;;;;;;;8.50;7.55;;;;;;;;;;517057;28;1681;-81
2022/04/29 00:38:17;;;;;;;9.80;7.70;;;;;;;;;;516980;28;1572;-81
2022/04/29 00:38:32;;;;;;;10.05;7.80;;;;;;;;;;517131;28;1654;-81
2022/04/29 00:38:48;;;;;;;10.03;7.90;;;;;;;;;;518720;28;1459;-81
2022/04/29 00:39:03;;;;;;;10.05;8.20;;;;;;;;;;517003;28;1467;-81
2022/04/29 00:39:19;;;;;;;10.80;8.33;;;;;;;;;;517249;28;1741;-81
2022/04/29 00:39:34;;;;;;;11.40;8.20;;;;;;;;;;516980;28;1523;-81
2022/04/29 00:39:49;;;;;;;10.37;8.00;;;;;;;;;;516689;28;1629;-81
2022/04/29 00:40:05;;;;;;;10.17;7.90;;;;;;;;;;517183;28;1609;-81
2022/04/29 00:40:24;;;;;;;11.50;8.00;;;;;;;;;;516887;28;1700;-81
2022/04/29 00:40:39;;;;;;;12.73;8.10;;;;;;;;;;517530;28;1538;-81
2022/04/29 00:40:55;;;;;;;11.40;8.07;;;;;;;;;;516045;28;1425;-81
2022/04/29 00:41:15;;;;;;;11.23;8.02;;;;;;;;;;516961;28;1580;-81
2022/04/29 00:41:30;;;;;;;10.48;7.93;;;;;;;;;;516967;28;1528;-81
2022/04/29 00:41:46;;;;;;;9.87;8.00;;;;;;;;;;516776;28;1812;-81
2022/04/29 00:42:22;;;;;;;10.40;8.05;;;;;;;;;;516833;28;1626;-81
2022/04/29 00:42:37;;;;;;;10.70;8.10;;;;;;;;;;517248;28;1575;-81
2022/04/29 00:42:53;;;;;;;10.23;8.00;;;;;;;;;;517139;28;1554;-81
2022/04/29 00:43:08;;;;;;;10.27;8.27;;;;;;;;;;517066;28;1805;-81
2022/04/29 00:43:24;;;;;;;9.57;7.85;;;;;;;;;;517385;28;1711;-81
2022/04/29 00:43:39;;;;;;;8.67;7.70;;;;;;;;;;517945;28;1508;-81
2022/04/29 00:44:09;;;;;;;9.80;8.03;;;;;;;;;;518533;28;1539;-81
2022/04/29 00:44:24;;;;;;;9.63;7.85;;;;;;;;;;518481;28;1664;-81
2022/04/29 00:44:41;;;;;;;9.35;7.80;;;;;;;;;;518111;28;1787;-81
2022/04/29 00:44:57;;;;;;;9.25;7.88;;;;;;;;;;515990;28;1569;-81
2022/04/29 00:45:15;;;;;;;10.03;8.17;;;;;;;;;;517148;28;1427;-81
2022/04/29 00:45:30;;;;;;;10.85;8.25;;;;;;;;;;515085;28;1576;-81
2022/04/29 00:45:46;;;;;;;11.73;8.13;;;;;;;;;;517372;28;1806;-81
2022/04/29 00:46:01;;;;;;;11.50;7.90;;;;;;;;;;517520;28;1474;-81
2022/04/29 00:46:17;;;;;;;10.75;8.07;;;;;;;;;;517114;28;1433;-81
2022/04/29 00:46:34;;;;;;;9.83;7.90;;;;;;;;;;517434;28;1907;-81
2022/04/29 00:46:51;;;;;;;9.32;7.55;;;;;;;;;;515603;28;1555;-81
2022/04/29 00:47:09;;;;;;;10.45;8.07;;;;;;;;;;515144;28;2293;-81
2022/04/29 00:47:24;;;;;;;10.80;7.90;;;;;;;;;;514959;28;1673;-81
2022/04/29 00:47:40;;;;;;;10.50;7.70;;;;;;;;;;514187;28;1916;-81
2022/04/29 00:47:56;;;;;;;10.02;8.05;;;;;;;;;;513221;28;1595;-81
2022/04/29 00:48:11;;;;;;;9.68;8.25;;;;;;;;;;514880;28;1597;-81
2022/04/29 00:48:28;;;;;;;9.17;8.13;;;;;;;;;;515732;28;1461;-81
2022/04/29 00:48:43;;;;;;;8.73;7.82;;;;;;;;;;516225;28;1485;-81
2022/04/29 00:48:59;;;;;;;8.70;7.80;;;;;;;;;;517666;28;1665;-81
2022/04/29 00:49:15;;;;;;;8.90;7.90;;;;;;;;;;519493;28;1713;-81
2022/04/29 00:49:31;;;;;;;8.70;7.80;;;;;;;;;;519045;28;1572;-81
2022/04/29 00:49:48;;;;;;;9.97;7.70;;;;;;;;;;519270;28;1451;-81
2022/04/29 00:50:04;;;;;;;11.45;8.15;;;;;;;;;;519361;28;1842;-81
2022/04/29 00:50:23;;;;;;;10.10;8.23;;;;;;;;;;518799;28;1577;-81
2022/04/29 00:50:38;;;;;;;9.25;8.02;;;;;;;;;;518822;28;1671;-81
2022/04/29 00:50:54;;;;;;;9.13;8.20;;;;;;;;;;519088;28;1572;-81
2022/04/29 00:51:09;;;;;;;9.55;8.35;;;;;;;;;;518559;28;1569;-81
2022/04/29 00:51:24;;;;;;;9.57;8.35;;;;;;;;;;519156;28;1559;-81
2022/04/29 00:51:42;;;;;;;9.87;8.30;;;;;;;;;;518567;28;1569;-80
2022/04/29 00:51:57;;;;;;;10.32;8.18;;;;;;;;;;519301;28;1542;-81
2022/04/29 00:52:19;;;;;;;9.55;7.75;;;;;;;;;;517170;28;1523;-81
2022/04/29 00:52:38;;;;;;;10.10;7.95;;;;;;;;;;516497;28;1726;-81
2022/04/29 00:52:57;;;;;;;9.98;8.07;;;;;;;;;;515271;28;1555;-81
2022/04/29 00:53:13;;;;;;;10.27;8.02;;;;;;;;;;512724;28;1575;-81
2022/04/29 00:53:29;;;;;;;10.23;8.07;;;;;;;;;;510911;28;1926;-81
2022/04/29 00:53:45;;;;;;;9.88;7.97;;;;;;;;;;511192;28;1933;-80
2022/04/29 00:54:02;;;;;;;9.30;7.88;;;;;;;;;;511139;28;1592;-80
2022/04/29 00:54:24;;;;;;;9.27;8.00;;;;;;;;;;513453;28;1444;-80
2022/04/29 00:54:42;;;;;;;10.15;8.10;;;;;;;;;;513204;28;1544;-80
2022/04/29 00:55:02;;;;;;;11.30;8.32;;;;;;;;;;515025;28;1919;-80
2022/04/29 00:55:18;;;;;;;13.07;8.50;;;;;;;;;;516904;28;1595;-80
2022/04/29 00:55:34;;;;;;;13.95;8.50;;;;;;;;;;517406;28;1638;-80
2022/04/29 00:55:50;;;;;;;10.73;8.05;;;;;;;;;;519004;28;1560;-80
2022/04/29 00:56:05;;;;;;;10.10;8.20;;;;;;;;;;519054;28;1775;-80
2022/04/29 00:56:22;;;;;;;10.37;8.20;;;;;;;;;;519887;28;1463;-80
2022/04/29 00:56:42;;;;;;;9.68;8.10;;;;;;;;;;519018;28;1704;-80
2022/04/29 00:56:59;;;;;;;10.55;8.52;;;;;;;;;;517178;28;1587;-80
2022/04/29 00:57:22;;;;;;;11.45;8.52;;;;;;;;;;517613;28;1789;-80
2022/04/29 00:57:50;;;;;;;10.88;8.10;;;;;;;;;;517667;28;1567;-80
2022/04/29 00:58:32;;;;;;;9.65;8.10;;;;;;;;;;517619;28;1421;-80
2022/04/29 00:58:53;;;;;;;10.48;8.38;;;;;;;;;;518910;28;1449;-80
2022/04/29 00:59:15;;;;;;;10.27;8.30;;;;;;;;;;519116;28;1733;-80
2022/04/29 00:59:46;;;;;;;9.68;8.30;;;;;;;;;;516677;28;1416;-80
2022/04/29 01:00:05;;;;;;;10.70;8.52;;;;;;;;;;516841;28;1648;-80
2022/04/29 01:00:22;;;;;;;9.70;8.27;;;;;;;;;;517288;28;1579;-80
2022/04/29 01:00:38;;;;;;;9.98;8.13;;;;;;;;;;516694;28;1551;-80
2022/04/29 01:00:54;;;;;;;9.65;8.05;;;;;;;;;;514837;28;1459;-80
2022/04/29 01:01:10;;;;;;;9.97;8.10;;;;;;;;;;514899;28;1883;-80
2022/04/29 01:01:27;;;;;;;9.73;8.20;;;;;;;;;;516065;28;1916;-80
2022/04/29 01:01:46;;;;;;;9.68;8.13;;;;;;;;;;517342;28;1595;-80
2022/04/29 01:02:03;;;;;;;10.93;8.15;;;;;;;;;;517141;28;1495;-80
2022/04/29 01:02:19;;;;;;;9.15;8.13;;;;;;;;;;517188;28;1458;-80
2022/04/29 01:02:38;;;;;;;10.63;8.30;;;;;;;;;;516814;28;1665;-80
2022/04/29 01:02:54;;;;;;;10.85;7.88;;;;;;;;;;519016;28;1772;-79
2022/04/29 01:03:14;;;;;;;10.00;7.88;;;;;;;;;;519142;28;1546;-80
2022/04/29 01:03:30;;;;;;;9.88;8.20;;;;;;;;;;518420;28;1488;-80
2022/04/29 01:03:46;;;;;;;9.27;8.27;;;;;;;;;;518972;28;1519;-80
2022/04/29 01:04:03;;;;;;;8.98;8.07;;;;;;;;;;519572;28;1958;-80
2022/04/29 01:04:24;;;;;;;9.63;8.02;;;;;;;;;;519437;28;1557;-80
2022/04/29 01:04:53;;;;;;;10.50;8.27;;;;;;;;;;518937;28;1742;-80
2022/04/29 01:05:11;;;;;;;9.95;8.15;;;;;;;;;;518729;28;1636;-80
2022/04/29 01:05:26;;;;;;;8.60;7.70;;;;;;;;;;518949;28;1566;-80
2022/04/29 01:05:42;;;;;;;9.23;8.07;;;;;;;;;;519414;28;1554;-80
2022/04/29 01:05:58;;;;;;;10.50;8.40;;;;;;;;;;516915;28;1648;-80
2022/04/29 01:06:13;;;;;;;9.90;8.30;;;;;;;;;;517449;28;1428;-80
2022/04/29 01:06:29;;;;;;;10.50;8.10;;;;;;;;;;517088;28;1669;-80
2022/04/29 01:06:44;;;;;;;11.03;8.20;;;;;;;;;;517602;28;2089;-80
2022/04/29 01:07:00;;;;;;;9.60;8.03;;;;;;;;;;514909;28;1554;-80
2022/04/29 01:07:15;;;;;;;9.23;8.20;;;;;;;;;;515025;28;1563;-80
2022/04/29 01:07:32;;;;;;;8.93;8.02;;;;;;;;;;514765;28;1831;-80
2022/04/29 01:07:49;;;;;;;9.00;7.90;;;;;;;;;;514994;28;1441;-80
2022/04/29 01:08:05;;;;;;;9.40;7.57;;;;;;;;;;514925;28;1466;-80
2022/04/29 01:08:21;;;;;;;10.05;8.02;;;;;;;;;;514944;28;1702;-80
2022/04/29 01:08:36;;;;;;;9.10;8.20;;;;;;;;;;515164;28;1558;-80
2022/04/29 01:08:52;;;;;;;9.20;8.30;;;;;;;;;;515895;28;1740;-80
2022/04/29 01:09:07;;;;;;;10.02;8.60;;;;;;;;;;515913;28;1396;-79
2022/04/29 01:09:25;;;;;;;10.37;8.47;;;;;;;;;;517694;28;1908;-80
2022/04/29 01:09:40;;;;;;;9.98;8.30;;;;;;;;;;517154;28;1609;-80
2022/04/29 01:09:56;;;;;;;10.07;8.40;;;;;;;;;;517144;28;1532;-80
2022/04/29 01:10:13;;;;;;;10.20;8.70;;;;;;;;;;516824;28;1523;-80
2022/04/29 01:10:29;;;;;;;9.95;8.45;;;;;;;;;;516768;28;1499;-80
2022/04/29 01:10:46;;;;;;;9.63;7.93;;;;;;;;;;517147;28;1459;-80
2022/04/29 01:11:02;;;;;;;9.98;7.90;;;;;;;;;;518094;28;2132;-80
2022/04/29 01:11:22;;;;;;;10.90;7.93;;;;;;;;;;519306;28;1416;-80
2022/04/29 01:11:38;;;;;;;10.05;8.10;;;;;;;;;;519060;28;1648;-80
2022/04/29 01:11:54;;;;;;;10.18;8.25;;;;;;;;;;517448;28;1915;-80
2022/04/29 01:12:10;;;;;;;9.85;8.02;;;;;;;;;;517557;28;1523;-80
2022/04/29 01:12:26;;;;;;;9.50;8.10;;;;;;;;;;516933;28;1424;-80
2022/04/29 01:12:44;;;;;;;10.55;8.63;;;;;;;;;;517147;28;1786;-80
2022/04/29 01:13:02;;;;;;;10.48;8.40;;;;;;;;;;517441;28;1539;-80
2022/04/29 01:13:18;;;;;;;9.40;8.00;;;;;;;;;;517292;28;1606;-80
2022/04/29 01:13:34;;;;;;;10.25;8.52;;;;;;;;;;517316;28;1910;-80
2022/04/29 01:13:51;;;;;;;12.50;8.57;;;;;;;;;;516462;28;1929;-80
2022/04/29 01:14:07;;;;;;;13.15;8.50;;;;;;;;;;517039;28;1740;-80
2022/04/29 01:14:22;;;;;;;10.93;8.70;;;;;;;;;;517582;28;1594;-80
2022/04/29 01:14:38;;;;;;;10.17;8.40;;;;;;;;;;516842;28;2004;-80
2022/04/29 01:14:55;;;;;;;10.30;8.25;;;;;;;;;;517193;28;1787;-80
2022/04/29 01:15:17;;;;;;;10.63;8.32;;;;;;;;;;515347;28;1563;-80
2022/04/29 01:15:34;;;;;;;11.00;8.50;;;;;;;;;;514966;28;1538;-80
2022/04/29 01:15:51;;;;;;;9.93;8.68;;;;;;;;;;517370;28;1423;-80
2022/04/29 01:16:06;;;;;;;10.30;8.82;;;;;;;;;;517374;28;1447;-80
2022/04/29 01:16:22;;;;;;;10.20;8.77;;;;;;;;;;517117;28;1566;-80
2022/04/29 01:16:37;;;;;;;10.25;8.55;;;;;;;;;;517664;28;1592;-80
2022/04/29 01:16:52;;;;;;;10.00;8.47;;;;;;;;;;516966;28;1677;-80
2022/04/29 01:17:08;;;;;;;9.30;8.17;;;;;;;;;;517415;28;1498;-80
2022/04/29 01:17:23;;;;;;;9.60;7.78;;;;;;;;;;516671;28;1636;-80
2022/04/29 01:17:41;;;;;;;10.73;8.17;;;;;;;;;;517143;28;1345;-80
2022/04/29 01:17:59;;;;;;;12.85;8.60;;;;;;;;;;516589;28;1424;-80
2022/04/29 01:18:17;;;;;;;12.05;8.68;;;;;;;;;;515051;28;1508;-80
2022/04/29 01:18:32;;;;;;;10.07;8.55;;;;;;;;;;514784;28;1686;-80
2022/04/29 01:18:53;;;;;;;9.77;8.40;;;;;;;;;;515010;28;1596;-80
2022/04/29 01:19:08;;;;;;;10.40;8.90;;;;;;;;;;515080;28;1619;-80
2022/04/29 01:19:25;;;;;;;11.60;8.60;;;;;;;;;;517221;28;1531;-80
2022/04/29 01:19:40;;;;;;;10.68;8.38;;;;;;;;;;516790;28;1532;-80
2022/04/29 01:20:00;;;;;;;11.10;8.47;;;;;;;;;;517711;28;1365;-80
2022/04/29 01:20:18;;;;;;;11.38;8.50;;;;;;;;;;516756;28;1563;-80
2022/04/29 01:20:33;;;;;;;11.40;8.65;;;;;;;;;;516848;28;1488;-80
2022/04/29 01:21:00;;;;;;;11.43;8.50;;;;;;;;;;515245;28;1581;-80
2022/04/29 01:21:15;;;;;;;10.90;8.68;;;;;;;;;;514904;28;1583;-80
2022/04/29 01:21:30;;;;;;;11.13;8.93;;;;;;;;;;515367;28;1592;-80
2022/04/29 01:21:46;;;;;;;12.30;9.02;;;;;;;;;;516987;28;1646;-80
2022/04/29 01:22:01;;;;;;;11.30;9.00;;;;;;;;;;517184;28;1645;-80
2022/04/29 01:22:16;;;;;;;9.87;8.83;;;;;;;;;;517387;28;2264;-80
2022/04/29 01:22:32;;;;;;;9.48;8.48;;;;;;;;;;517863;28;2633;-80
2022/04/29 01:22:48;;;;;;;10.02;8.30;;;;;;;;;;518984;28;1488;-80
2022/04/29 01:23:07;;;;;;;11.70;8.43;;;;;;;;;;516880;28;1582;-80
2022/04/29 01:23:23;;;;;;;10.68;8.80;;;;;;;;;;515056;28;1706;-80
2022/04/29 01:23:38;;;;;;;10.40;8.50;;;;;;;;;;517119;28;1535;-80
2022/04/29 01:23:54;;;;;;;9.73;8.60;;;;;;;;;;517076;28;1743;-79
2022/04/29 01:24:09;;;;;;;10.60;8.73;;;;;;;;;;517371;28;1606;-80
2022/04/29 01:24:24;;;;;;;11.77;8.70;;;;;;;;;;514890;28;1766;-80
2022/04/29 01:24:40;;;;;;;9.82;8.35;;;;;;;;;;515510;28;1425;-80
2022/04/29 01:24:56;;;;;;;9.40;8.40;;;;;;;;;;512661;28;1476;-80
2022/04/29 01:25:12;;;;;;;10.43;8.77;;;;;;;;;;512342;28;1512;-80
2022/04/29 01:25:27;;;;;;;10.15;8.68;;;;;;;;;;513004;28;1729;-80
2022/04/29 01:25:43;;;;;;;10.33;8.43;;;;;;;;;;512666;28;1508;-80
2022/04/29 01:25:58;;;;;;;12.40;8.80;;;;;;;;;;512778;28;1792;-80
2022/04/29 01:26:16;;;;;;;11.70;8.85;;;;;;;;;;513451;28;1572;-80
2022/04/29 01:26:33;;;;;;;11.18;8.77;;;;;;;;;;514954;28;1449;-80
2022/04/29 01:26:49;;;;;;;10.60;8.75;;;;;;;;;;513602;28;1595;-80
2022/04/29 01:27:11;;;;;;;10.27;8.57;;;;;;;;;;514533;28;1614;-80
2022/04/29 01:27:27;;;;;;;11.23;8.70;;;;;;;;;;514236;28;2043;-80
2022/04/29 01:27:42;;;;;;;9.67;8.43;;;;;;;;;;516824;28;2096;-80
2022/04/29 01:27:57;;;;;;;9.43;8.25;;;;;;;;;;514940;28;1567;-80
2022/04/29 01:28:13;;;;;;;9.73;8.10;;;;;;;;;;514574;28;1877;-80
2022/04/29 01:28:30;;;;;;;11.10;8.40;;;;;;;;;;515041;28;1483;-80
2022/04/29 01:28:45;;;;;;;11.65;8.65;;;;;;;;;;516393;28;1528;-80
2022/04/29 01:29:02;;;;;;;11.13;8.70;;;;;;;;;;516668;28;1490;-80
2022/04/29 01:29:19;;;;;;;10.95;8.80;;;;;;;;;;517126;28;1423;-80
2022/04/29 01:29:35;;;;;;;12.00;9.00;;;;;;;;;;516177;28;1530;-80
2022/04/29 01:30:13;;;;;;;13.47;9.07;;;;;;;;;;515487;28;1512;-80
2022/04/29 01:30:29;;;;;;;12.18;8.95;;;;;;;;;;512592;28;1566;-80
2022/04/29 01:30:45;;;;;;;10.10;8.57;;;;;;;;;;512810;28;1437;-80
2022/04/29 01:31:03;;;;;;;10.43;8.70;;;;;;;;;;514762;28;1802;-80
2022/04/29 01:31:22;;;;;;;11.00;9.02;;;;;;;;;;514707;28;1596;-80
2022/04/29 01:31:39;;;;;;;9.98;8.68;;;;;;;;;;514851;28;1884;-80
2022/04/29 01:31:54;;;;;;;10.15;8.38;;;;;;;;;;516675;28;1573;-80
2022/04/29 01:32:10;;;;;;;11.50;8.68;;;;;;;;;;517051;28;1487;-80
2022/04/29 01:32:26;;;;;;;11.88;9.00;;;;;;;;;;516055;28;1605;-80
2022/04/29 01:32:42;;;;;;;10.63;8.82;;;;;;;;;;516961;28;1464;-80
2022/04/29 01:33:00;;;;;;;11.80;9.00;;;;;;;;;;517209;28;1602;-80
2022/04/29 01:33:16;;;;;;;10.70;8.65;;;;;;;;;;515062;28;1582;-80
2022/04/29 01:33:32;;;;;;;10.13;8.73;;;;;;;;;;514377;28;1958;-80
2022/04/29 01:33:49;;;;;;;10.80;9.00;;;;;;;;;;513033;28;1528;-80
2022/04/29 01:34:04;;;;;;;11.18;8.68;;;;;;;;;;514887;28;1519;-80
2022/04/29 01:34:19;;;;;;;11.60;8.52;;;;;;;;;;515996;28;1517;-80
2022/04/29 01:34:36;;;;;;;10.30;8.70;;;;;;;;;;514982;28;1531;-80
2022/04/29 01:34:51;;;;;;;10.57;8.82;;;;;;;;;;515090;28;1457;-80
2022/04/29 01:35:09;;;;;;;10.75;8.75;;;;;;;;;;514935;28;1602;-80
2022/04/29 01:35:24;;;;;;;10.80;8.73;;;;;;;;;;515129;28;1428;-80
2022/04/29 01:35:39;;;;;;;11.50;8.90;;;;;;;;;;514927;28;1719;-80
2022/04/29 01:35:55;;;;;;;10.50;9.03;;;;;;;;;;515898;28;1518;-80
2022/04/29 01:36:10;;;;;;;10.77;9.23;;;;;;;;;;514565;28;1596;-80
2022/04/29 01:36:26;;;;;;;11.53;8.97;;;;;;;;;;514991;28;1542;-80
2022/04/29 01:36:41;;;;;;;11.30;8.57;;;;;;;;;;516849;28;1531;-80
2022/04/29 01:36:57;;;;;;;11.20;8.80;;;;;;;;;;516539;28;1613;-79
2022/04/29 01:37:12;;;;;;;11.33;9.07;;;;;;;;;;515786;28;1655;-80
2022/04/29 01:37:27;;;;;;;11.88;8.80;;;;;;;;;;517396;28;1590;-80
2022/04/29 01:37:46;;;;;;;11.50;8.70;;;;;;;;;;517428;28;1937;-80
2022/04/29 01:38:01;;;;;;;12.10;9.30;;;;;;;;;;518002;28;1749;-80
2022/04/29 01:38:17;;;;;;;11.97;9.00;;;;;;;;;;517799;28;1618;-80
2022/04/29 01:38:33;;;;;;;11.25;8.93;;;;;;;;;;517846;28;1484;-81
2022/04/29 01:38:48;;;;;;;10.87;9.20;;;;;;;;;;517191;28;1606;-80
2022/04/29 01:39:03;;;;;;;11.67;8.87;;;;;;;;;;515821;28;1401;-81
2022/04/29 01:39:19;;;;;;;11.03;8.50;;;;;;;;;;516774;28;1574;-80
2022/04/29 01:39:34;;;;;;;11.27;9.07;;;;;;;;;;516506;28;1676;-80
2022/04/29 01:39:49;;;;;;;11.97;9.50;;;;;;;;;;516699;28;1520;-81
2022/04/29 01:40:06;;;;;;;12.00;9.20;;;;;;;;;;516625;28;1517;-81
2022/04/29 01:40:21;;;;;;;12.88;9.20;;;;;;;;;;516728;28;1693;-81
2022/04/29 01:40:37;;;;;;;11.77;8.90;;;;;;;;;;517332;28;1479;-81
2022/04/29 01:40:52;;;;;;;10.57;8.80;;;;;;;;;;516820;28;1742;-80
2022/04/29 01:41:08;;;;;;;10.50;9.00;;;;;;;;;;517146;28;1407;-81
2022/04/29 01:41:23;;;;;;;10.52;8.90;;;;;;;;;;516882;28;1558;-80